Weaverland, Pennsylvania
Current Conditions -  °F | °C
As of 5:35 AM on Thursday 18 Dec 2014 (Local Time) from KMQS Reporting Station
Scattered Clouds Scattered Clouds  
Wind Chill: 26°   Ceiling: Unl
Heat Index: 32°   Visibility: 10mi
Dew Point: 21°   Wind: 7mph
Humidity: 64%   Direction: 270°W
Pressure: 30.03"   Gusts: NA
Location:  40.1386°N, 76.0187°W
Report Text: KMQS 181035Z AUTO 27006KT 250V310 10SM SCT044 00/M06 A3003 RMK AO2
Loading
Personal Weather Stations






























Interactive Weather Map New forecast layout! Learn more

10-Day Weather Forecast

Advertisements
Track Severe Weather on mobile